Terminal Aerodrome Forecast
Issued by NWS Chicago, IL

Home | Current Version | Previous Version | Graphics & Text | Print | Product List | Glossary On
Versions: 1 2 3 4 5 6 7 8 9 10 11 12 13 14 15 16 17 18 19 20 21 22 23 24 25 26 27 28 29 30 31 32 33 34
000
FTUS43 KLOT 271400 AAA
TAFRFD
TAF AMD
KRFD 271400Z 2714/2812 28011KT P6SM FEW040 SCT100
     FM271500 29012G19KT P6SM VCTS SCT040CB BKN100
     FM271700 31018G28KT P6SM BKN040
     FM280100 33011KT P6SM BKN030
     FM280700 34009KT P6SM SCT035=

USA.gov is the U.S. government's official web portal to all federal, state and local government web resources and services.